Time;durP1;ratioP1;P1;durP2;ratioP2;P2;SDS_P1;SDS_P2;PMS_P1;PMS_P2;Temp;Humidity;BMP_temperature;BMP_pressure;BME280_temperature;BME280_humidity;BME280_pressure;Samples;Min_cycle;Max_cycle;Signal;HPM_P1;HPM_P2
2023/01/24 00:06:58;;;;;;;46.40;18.77;;;;;;;0.98;82.10;102242.22;30857578;28;96577;-65
2023/01/24 00:22:00;;;;;;;44.72;19.45;;;;;;;0.99;82.09;102229.97;30856405;28;96963;-64
2023/01/24 00:37:02;;;;;;;48.30;20.02;;;;;;;0.98;82.04;102236.13;30855447;28;96883;-65
2023/01/24 00:52:02;;;;;;;47.50;20.38;;;;;;;1.03;81.99;102246.47;30854157;28;96764;-67
2023/01/24 01:07:03;;;;;;;47.20;20.95;;;;;;;1.00;82.19;102258.78;30856329;28;97259;-67
2023/01/24 01:22:03;;;;;;;42.63;19.35;;;;;;;1.08;82.46;102270.75;30873745;28;96713;-66
2023/01/24 01:37:04;;;;;;;46.83;20.52;;;;;;;1.12;82.41;102270.63;30872515;28;96596;-66
2023/01/24 01:52:06;;;;;;;43.28;20.60;;;;;;;1.12;82.01;102270.63;30870644;28;97166;-67
2023/01/24 02:07:15;;;;;;;40.45;20.52;;;;;;;1.16;82.56;102250.34;30869383;28;96689;-66
2023/01/24 02:22:44;;;;;;;45.72;20.45;;;;;;;1.24;82.00;102237.75;30868089;28;96681;-64
2023/01/24 02:37:44;;;;;;;45.03;18.55;;;;;;;1.35;82.48;102235.59;30859284;28;97024;-67
2023/01/24 03:08:04;;;;;;;37.85;19.27;;;;;;;1.40;81.81;102231.94;30740117;28;96985;-67
2023/01/24 03:53:42;;;;;;;36.72;18.05;;;;;;;1.36;82.21;102241.69;30733628;28;96983;-66
2023/01/24 04:08:42;;;;;;;46.20;18.92;;;;;;;1.33;82.21;102247.91;30735040;28;96691;-67
2023/01/24 04:23:43;;;;;;;38.05;19.13;;;;;;;1.35;82.17;102248.72;30734783;28;96666;-66
2023/01/24 04:38:43;;;;;;;38.00;17.85;;;;;;;1.35;82.00;102259.22;30732898;28;96796;-66
2023/01/24 04:53:43;;;;;;;53.10;21.20;;;;;;;1.26;82.24;102271.84;30728786;28;96702;-67
2023/01/24 05:08:44;;;;;;;45.17;18.98;;;;;;;1.25;81.95;102276.25;30728025;28;96653;-66
2023/01/24 05:23:50;;;;;;;48.60;20.40;;;;;;;1.31;82.29;102283.03;30726861;28;97627;-67
2023/01/24 05:38:50;;;;;;;44.25;19.38;;;;;;;1.29;81.93;102283.09;30725741;28;96923;-65
2023/01/24 05:53:51;;;;;;;44.35;20.13;;;;;;;1.28;81.74;102294.50;30843333;28;98023;-67
2023/01/24 06:08:51;;;;;;;39.30;17.98;;;;;;;1.28;81.84;102298.91;30902645;28;98400;-72
2023/01/24 06:23:52;;;;;;;46.38;21.08;;;;;;;1.28;81.74;102312.88;30862762;28;96838;-68
2023/01/24 06:38:53;;;;;;;43.08;18.50;;;;;;;1.28;82.18;102318.13;30856490;28;97488;-64
2023/01/24 06:53:53;;;;;;;38.22;15.52;;;;;;;1.31;82.24;102335.56;30851003;28;97721;-64
2023/01/24 07:08:53;;;;;;;46.45;18.15;;;;;;;1.34;81.93;102349.44;30855346;28;97809;-64
2023/01/24 07:23:56;;;;;;;41.88;18.88;;;;;;;1.38;81.84;102344.06;30856368;28;97310;-65
2023/01/24 07:38:57;;;;;;;41.97;19.48;;;;;;;1.49;82.01;102358.50;30857259;28;97479;-64
2023/01/24 07:53:57;;;;;;;40.03;18.58;;;;;;;1.69;82.19;102370.91;30851552;28;96672;-64
2023/01/24 08:08:58;;;;;;;39.38;18.90;;;;;;;1.84;81.52;102364.16;30873662;28;97169;-63
2023/01/24 08:23:58;;;;;;;42.50;20.17;;;;;;;2.09;81.64;102365.84;30876099;28;97413;-61
2023/01/24 08:38:58;;;;;;;41.47;19.30;;;;;;;2.16;80.97;102369.94;30892345;28;96697;-60
2023/01/24 08:53:59;;;;;;;42.40;20.17;;;;;;;2.35;80.97;102371.78;30964656;28;97108;-61
2023/01/24 09:08:59;;;;;;;49.53;19.77;;;;;;;2.51;80.94;102393.06;30903517;28;97313;-62
2023/01/24 09:23:59;;;;;;;40.20;17.52;;;;;;;2.74;80.94;102397.38;30916687;28;97613;-61
2023/01/24 09:39:00;;;;;;;45.80;20.67;;;;;;;2.86;80.61;102399.47;30872100;28;97218;-63
2023/01/24 09:54:03;;;;;;;47.17;19.73;;;;;;;3.05;80.32;102391.63;30874312;28;97117;-64
2023/01/24 10:09:26;;;;;;;41.85;18.65;;;;;;;3.38;80.06;102375.25;30957588;28;97434;-64
2023/01/24 10:24:32;;;;;;;34.88;17.92;;;;;;;3.76;80.24;102361.22;30913310;28;96778;-62
2023/01/24 10:39:32;;;;;;;34.70;17.10;;;;;;;3.88;78.62;102350.09;30899793;28;97027;-64
2023/01/24 10:54:42;;;;;;;39.13;18.23;;;;;;;3.99;78.59;102344.31;30953833;28;96911;-63
2023/01/24 11:09:42;;;;;;;37.22;18.52;;;;;;;4.07;78.42;102338.63;30944330;28;97332;-64
2023/01/24 11:24:44;;;;;;;35.00;18.67;;;;;;;4.18;78.25;102327.56;30930324;28;96771;-62
2023/01/24 11:40:21;;;;;;;36.38;17.55;;;;;;;4.11;78.11;102324.38;30852870;28;97015;-64
2023/01/24 11:55:55;;;;;;;39.40;19.50;;;;;;;4.44;78.64;102320.13;30844609;28;97316;-63
2023/01/24 12:11:10;;;;;;;39.23;19.60;;;;;;;4.32;77.69;102327.75;30886855;28;97293;-62
2023/01/24 12:26:27;;;;;;;39.13;17.92;;;;;;;4.10;77.56;102314.78;30972746;28;97193;-63
2023/01/24 12:41:35;;;;;;;39.85;19.17;;;;;;;4.05;77.53;102312.34;30973900;28;97830;-65
2023/01/24 12:56:48;;;;;;;37.50;18.63;;;;;;;3.93;77.22;102309.47;30968179;28;96770;-64
2023/01/24 13:11:51;;;;;;;39.90;19.40;;;;;;;4.01;77.50;102310.78;30987454;28;96806;-65
2023/01/24 13:27:00;;;;;;;55.75;23.08;;;;;;;3.77;77.42;102306.72;30990340;28;97372;-62
2023/01/24 13:42:18;;;;;;;43.78;20.85;;;;;;;3.76;77.56;102297.09;30988057;28;96620;-63
2023/01/24 13:57:24;;;;;;;57.17;22.23;;;;;;;3.56;77.32;102318.19;30986627;28;96680;-63
2023/01/24 14:12:25;;;;;;;45.95;21.42;;;;;;;3.48;77.62;102312.44;30932782;28;97379;-61
2023/01/24 14:27:32;;;;;;;48.63;22.42;;;;;;;3.44;77.77;102317.94;30910995;28;97469;-65
2023/01/24 14:42:32;;;;;;;43.38;20.77;;;;;;;3.32;77.47;102321.97;30911932;28;97666;-65
2023/01/24 14:57:33;;;;;;;40.35;19.00;;;;;;;3.19;78.26;102340.97;30946633;28;96795;-61
2023/01/24 15:12:35;;;;;;;41.90;19.95;;;;;;;3.15;78.19;102338.56;30855235;28;98145;-61
2023/01/24 15:27:40;;;;;;;44.72;22.27;;;;;;;3.15;78.28;102333.28;30854959;28;97017;-62
2023/01/24 15:58:14;;;;;;;40.25;20.42;;;;;;;3.02;78.57;102339.13;31448265;27;97629;-65
2023/01/24 16:13:31;;;;;;;42.42;20.95;;;;;;;2.87;78.70;102338.00;31453223;27;97275;-65
2023/01/24 16:28:31;;;;;;;46.28;20.63;;;;;;;2.90;78.98;102328.25;31445984;27;97024;-64
2023/01/24 16:43:32;;;;;;;46.95;21.60;;;;;;;2.80;78.87;102328.69;31449855;27;96815;-60
2023/01/24 16:58:32;;;;;;;47.70;23.27;;;;;;;2.76;78.68;102337.63;31421975;27;97020;-61
2023/01/24 17:13:33;;;;;;;49.33;24.02;;;;;;;2.76;79.03;102332.38;31350928;27;97142;-60
2023/01/24 17:28:36;;;;;;;49.65;24.27;;;;;;;2.69;78.78;102326.50;31356742;27;97342;-63
2023/01/24 17:43:36;;;;;;;51.90;25.77;;;;;;;2.59;78.98;102327.81;31359541;27;97362;-62
2023/01/24 17:58:37;;;;;;;51.42;24.70;;;;;;;2.56;78.86;102325.31;31359099;27;96554;-61
2023/01/24 18:13:38;;;;;;;52.60;25.42;;;;;;;2.51;79.43;102349.19;31353778;27;96665;-62
2023/01/24 18:28:38;;;;;;;57.80;26.10;;;;;;;2.57;79.49;102350.72;31353750;27;96648;-61
2023/01/24 18:43:39;;;;;;;68.43;29.25;;;;;;;2.42;79.35;102349.59;31353657;27;97207;-60
2023/01/24 18:58:40;;;;;;;60.90;29.27;;;;;;;2.36;79.61;102345.44;31353246;27;96613;-61
2023/01/24 19:13:41;;;;;;;69.47;29.65;;;;;;;2.30;79.89;102335.16;31350399;27;96691;-60
2023/01/24 19:28:42;;;;;;;63.72;29.00;;;;;;;2.28;80.02;102315.09;31349049;27;97484;-64
2023/01/24 19:43:42;;;;;;;69.22;29.00;;;;;;;2.30;80.09;102324.66;31350456;27;97293;-61
2023/01/24 19:58:44;;;;;;;65.88;28.05;;;;;;;2.35;79.90;102340.22;31347710;27;96759;-62
2023/01/24 20:13:46;;;;;;;69.95;28.45;;;;;;;2.19;80.24;102334.75;31343037;27;97184;-61
2023/01/24 20:28:47;;;;;;;59.75;27.00;;;;;;;2.33;80.27;102334.19;31338103;27;97069;-61
2023/01/24 20:43:51;;;;;;;63.60;26.52;;;;;;;2.30;79.96;102348.31;31353533;27;97361;-61
2023/01/24 20:58:53;;;;;;;58.25;25.45;;;;;;;2.33;80.47;102339.44;31356715;27;97282;-61
2023/01/24 21:14:00;;;;;;;64.40;29.13;;;;;;;2.28;80.31;102323.84;31354612;27;97331;-60
2023/01/24 21:29:00;;;;;;;59.75;27.30;;;;;;;2.33;80.73;102319.25;31352698;27;97554;-61
2023/01/24 21:44:01;;;;;;;64.93;27.67;;;;;;;2.33;80.45;102328.94;31238099;27;96802;-61
2023/01/24 21:59:01;;;;;;;55.65;26.63;;;;;;;2.36;80.38;102323.53;31234561;28;97270;-62
2023/01/24 22:14:02;;;;;;;58.05;24.73;;;;;;;2.49;80.85;102321.25;31232179;28;97356;-62
2023/01/24 22:29:03;;;;;;;48.08;22.67;;;;;;;2.40;80.83;102322.47;31231953;28;97762;-61
2023/01/24 22:44:03;;;;;;;52.00;20.30;;;;;;;2.33;80.81;102303.47;31231015;27;96774;-61
2023/01/24 22:59:04;;;;;;;53.75;23.55;;;;;;;2.31;80.41;102299.19;31229733;27;96821;-61
2023/01/24 23:29:40;;;;;;;53.45;25.50;;;;;;;2.43;80.42;102287.31;31353710;27;96790;-62
2023/01/24 23:44:41;;;;;;;49.03;22.70;;;;;;;2.35;80.28;102290.25;31351811;27;97148;-62
2023/01/24 23:59:41;;;;;;;33.78;16.52;;;;;;;2.39;80.81;102267.31;31350964;27;96715;-62
